Welcome to Northern Hawkes Bay. New Zealand.
PWS Header
      nz Flag



Hit Counter


W3C Valid W3C Valid logo


    Wairoa

Select any of the Stations below to visit their websites.










Historic Data from Weather Underground
Select the location of interest below. Wairoa is the default. Please have patience, this Data is slow to load in.
Northern Hawkes Bay Historical Data
 
Daily Summary for April 27, 2017 Units:  Metric    English   Both
« Previous Day
Next Day »
Daily Weekly Monthly Yearly Custom
  Current: High: Low: Average:
Temperature: 10.7 °C 22.9 °C 8.0 °C 14.5 °C
Dew Point: 10.4 °C 12.8 °C 7.8 °C 10.1 °C
Humidity: 98% 99% 42% 79%
Wind Speed: 0.0km/h 9.7km/h 0.0km/h 2.7km/h
Wind Gust: 5.0km/h 14.8km/h - -
WindCalm - - West
Pressure: 1018.8 hPa 1020.5 hPa 1018.5 hPa -
Precipitation: 0.0 mm      
Historical Graphs
 
 
Tabular Data for April 27, 2017
Time Temperature Dew Point Pressure Wind Wind Speed Wind Gust Humidity Rainfall Rate (Hourly) solar
00:09 11.0 °C 10.7 °C 1019.5 hPa NNW 5.0 km/h 8.7 km/h 98% 0.0 mm 0 W/m2
00:14 11.0 °C 10.7 °C 1019.5 hPa NNW 5.0 km/h 8.7 km/h 98% 0.0 mm 0 W/m2
00:19 10.9 °C 10.8 °C 1019.5 hPa NNW 5.0 km/h 8.7 km/h 99% 0.0 mm 0 W/m2
00:25 10.8 °C 10.7 °C 1019.5 hPa NNW 3.5 km/h 8.7 km/h 99% 0.0 mm 0 W/m2
00:30 10.8 °C 10.7 °C 1019.5 hPa NNW 5.0 km/h 8.7 km/h 99% 0.0 mm 0 W/m2
00:35 10.7 °C 10.6 °C 1019.5 hPa NNW 3.5 km/h 7.2 km/h 99% 0.0 mm 0 W/m2
00:40 10.7 °C 10.6 °C 1019.2 hPa Calm   7.2 km/h 99% 0.0 mm 0 W/m2
00:49 10.7 °C 10.6 °C 1019.5 hPa NW 3.5 km/h 7.2 km/h 99% 0.0 mm 0 W/m2
01:06 10.5 °C 10.3 °C 1019.5 hPa NNW 5.0 km/h 9.7 km/h 99% 0.0 mm 0 W/m2
01:11 10.5 °C 10.3 °C 1019.5 hPa NNW 3.5 km/h 9.7 km/h 99% 0.0 mm 0 W/m2
01:16 10.5 °C 10.3 °C 1019.5 hPa Calm   8.7 km/h 99% 0.0 mm 0 W/m2
01:21 10.4 °C 10.3 °C 1019.5 hPa North 3.5 km/h 7.2 km/h 99% 0.0 mm 0 W/m2
01:26 10.4 °C 10.3 °C 1019.5 hPa NNW 5.0 km/h 7.2 km/h 99% 0.0 mm 0 W/m2
01:31 10.3 °C 10.2 °C 1019.5 hPa NNW 5.0 km/h 8.7 km/h 99% 0.0 mm 0 W/m2
01:36 10.3 °C 10.2 °C 1019.5 hPa NNW 3.5 km/h 8.7 km/h 99% 0.0 mm 0 W/m2
01:41 10.3 °C 10.2 °C 1019.5 hPa Calm   7.2 km/h 99% 0.0 mm 0 W/m2
01:46 10.3 °C 10.2 °C 1019.5 hPa Calm   6.1 km/h 99% 0.0 mm 0 W/m2
01:51 10.3 °C 10.2 °C 1019.5 hPa NW 2.6 km/h 6.1 km/h 99% 0.0 mm 0 W/m2
01:56 10.2 °C 10.1 °C 1019.5 hPa NW 6.1 km/h 8.7 km/h 99% 0.0 mm 0 W/m2
02:01 10.2 °C 10.1 °C 1019.5 hPa NW 2.6 km/h 8.7 km/h 99% 0.0 mm 0 W/m2
02:06 10.2 °C 10.1 °C 1019.5 hPa NNW 3.5 km/h 8.7 km/h 99% 0.0 mm 0 W/m2
02:11 10.2 °C 10.1 °C 1019.5 hPa NNW 2.6 km/h 9.7 km/h 99% 0.0 mm 0 W/m2
02:16 10.2 °C 10.1 °C 1019.5 hPa Calm   9.7 km/h 99% 0.0 mm 0 W/m2
02:21 10.1 °C 9.9 °C 1019.5 hPa Calm   8.7 km/h 99% 0.0 mm 0 W/m2
02:26 10.1 °C 9.9 °C 1019.2 hPa Calm   6.1 km/h 99% 0.0 mm 0 W/m2
02:31 10.0 °C 9.8 °C 1019.5 hPa Calm   8.7 km/h 99% 0.0 mm 0 W/m2
02:36 9.8 °C 9.7 °C 1019.5 hPa Calm   8.7 km/h 99% 0.0 mm 0 W/m2
02:41 9.7 °C 9.6 °C 1019.5 hPa Calm   5.0 km/h 99% 0.0 mm 0 W/m2
02:46 9.7 °C 9.6 °C 1019.5 hPa Calm   11.1 km/h 99% 0.0 mm 0 W/m2
02:51 9.8 °C 9.7 °C 1019.5 hPa NNW 6.1 km/h 12.2 km/h 99% 0.0 mm 0 W/m2
02:56 9.8 °C 9.7 °C 1019.2 hPa NW 8.7 km/h 12.2 km/h 99% 0.0 mm 0 W/m2
03:01 9.7 °C 9.6 °C 1019.2 hPa NNW 7.2 km/h 12.2 km/h 99% 0.0 mm 0 W/m2
03:06 9.7 °C 9.6 °C 1019.2 hPa NNW 7.2 km/h 12.2 km/h 99% 0.0 mm 0 W/m2
03:11 9.7 °C 9.6 °C 1019.2 hPa NNW 9.7 km/h 13.4 km/h 99% 0.0 mm 0 W/m2
03:16 9.7 °C 9.6 °C 1019.2 hPa NNW 7.2 km/h 13.4 km/h 99% 0.0 mm 0 W/m2
03:21 9.7 °C 9.6 °C 1019.2 hPa NNW 6.1 km/h 13.4 km/h 99% 0.0 mm 0 W/m2
03:26 9.7 °C 9.6 °C 1019.2 hPa NNW 6.1 km/h 13.4 km/h 99% 0.0 mm 0 W/m2
03:31 9.6 °C 9.4 °C 1018.8 hPa NNW 6.1 km/h 12.2 km/h 99% 0.0 mm 0 W/m2
03:36 9.6 °C 9.4 °C 1018.8 hPa NNW 6.1 km/h 12.2 km/h 99% 0.0 mm 0 W/m2
03:41 9.5 °C 9.3 °C 1018.8 hPa NNW 5.0 km/h 9.7 km/h 99% 0.0 mm 0 W/m2
03:46 9.5 °C 9.3 °C 1018.8 hPa NNW 5.0 km/h 9.7 km/h 99% 0.0 mm 0 W/m2
03:51 9.5 °C 9.3 °C 1018.8 hPa NNW 2.6 km/h 9.7 km/h 99% 0.0 mm 0 W/m2
03:56 9.7 °C 9.6 °C 1018.8 hPa NNW 3.5 km/h 11.1 km/h 99% 0.0 mm 0 W/m2
04:01 9.7 °C 9.6 °C 1018.8 hPa NNW 2.6 km/h 11.1 km/h 99% 0.0 mm 0 W/m2
04:06 9.7 °C 9.6 °C 1018.8 hPa NNW 5.0 km/h 12.2 km/h 99% 0.0 mm 0 W/m2
04:11 9.6 °C 9.4 °C 1018.8 hPa NNW 7.2 km/h 12.2 km/h 99% 0.0 mm 0 W/m2
04:16 9.6 °C 9.4 °C 1018.8 hPa NNW 3.5 km/h 9.7 km/h 99% 0.0 mm 0 W/m2
04:21 9.5 °C 9.3 °C 1018.8 hPa Calm   11.1 km/h 99% 0.0 mm 0 W/m2
04:26 9.4 °C 9.3 °C 1018.8 hPa NNW 6.1 km/h 11.1 km/h 99% 0.0 mm 0 W/m2
04:31 9.3 °C 9.2 °C 1018.8 hPa NNW 2.6 km/h 8.7 km/h 99% 0.0 mm 0 W/m2
04:36 9.3 °C 9.2 °C 1018.8 hPa NNW 6.1 km/h 11.1 km/h 99% 0.0 mm 0 W/m2
04:41 9.3 °C 9.2 °C 1018.8 hPa NNW 5.0 km/h 11.1 km/h 99% 0.0 mm 0 W/m2
04:46 9.3 °C 9.2 °C 1018.8 hPa NNW 3.5 km/h 14.8 km/h 99% 0.0 mm 0 W/m2
04:51 9.2 °C 9.1 °C 1018.8 hPa NNW 2.6 km/h 14.8 km/h 99% 0.0 mm 0 W/m2
04:56 9.0 °C 8.8 °C 1018.8 hPa NNW 6.1 km/h 8.7 km/h 99% 0.0 mm 0 W/m2
05:01 9.0 °C 8.8 °C 1018.8 hPa NW 5.0 km/h 9.7 km/h 99% 0.0 mm 0 W/m2
05:06 9.0 °C 8.8 °C 1018.8 hPa NW 5.0 km/h 13.4 km/h 99% 0.0 mm 0 W/m2
05:11 9.0 °C 8.8 °C 1018.8 hPa NW 6.1 km/h 13.4 km/h 99% 0.0 mm 0 W/m2
05:16 9.0 °C 8.8 °C 1018.8 hPa North 3.5 km/h 11.1 km/h 99% 0.0 mm 0 W/m2
05:21 9.0 °C 8.8 °C 1018.8 hPa North 7.2 km/h 13.4 km/h 99% 0.0 mm 0 W/m2
05:26 9.0 °C 8.8 °C 1018.8 hPa NNW 6.1 km/h 13.4 km/h 99% 0.0 mm 0 W/m2
05:31 8.8 °C 8.7 °C 1018.8 hPa NNW 6.1 km/h 13.4 km/h 99% 0.0 mm 0 W/m2
05:36 8.8 °C 8.7 °C 1018.8 hPa NW 6.1 km/h 11.1 km/h 99% 0.0 mm 0 W/m2
05:41 8.7 °C 8.6 °C 1018.8 hPa NW 5.0 km/h 11.1 km/h 99% 0.0 mm 0 W/m2
05:46 8.7 °C 8.6 °C 1018.8 hPa Calm   11.1 km/h 99% 0.0 mm 0 W/m2
05:51 8.6 °C 8.4 °C 1018.8 hPa NW 6.1 km/h 11.1 km/h 99% 0.0 mm 0 W/m2
05:56 8.4 °C 8.3 °C 1018.8 hPa NW 2.6 km/h 9.7 km/h 99% 0.0 mm 0 W/m2
06:01 8.3 °C 8.2 °C 1018.8 hPa Calm   8.7 km/h 99% 0.0 mm 0 W/m2
06:06 8.3 °C 8.2 °C 1018.8 hPa NW 2.6 km/h 8.7 km/h 99% 0.0 mm 0 W/m2
06:11 8.2 °C 8.1 °C 1018.8 hPa NW 1.1 km/h 8.7 km/h 99% 0.0 mm 0 W/m2
06:16 8.2 °C 8.1 °C 1018.8 hPa NW 3.5 km/h 8.7 km/h 99% 0.0 mm 0 W/m2
06:21 8.2 °C 8.1 °C 1018.8 hPa NW 5.0 km/h 9.7 km/h 99% 0.0 mm 0 W/m2
06:26 8.1 °C 7.9 °C 1019.2 hPa NW 3.5 km/h 9.7 km/h 99% 0.0 mm 0 W/m2
06:31 8.3 °C 8.2 °C 1019.2 hPa NNW 3.5 km/h 9.7 km/h 99% 0.0 mm 0 W/m2
06:36 8.3 °C 8.2 °C 1018.8 hPa Calm   9.7 km/h 99% 0.0 mm 0 W/m2
06:41 8.3 °C 8.2 °C 1019.2 hPa NW 7.2 km/h 9.7 km/h 99% 0.0 mm 0 W/m2
06:46 8.4 °C 8.3 °C 1019.2 hPa NNW 2.6 km/h 9.7 km/h 99% 0.0 mm 2 W/m2
06:51 8.3 °C 8.2 °C 1018.8 hPa Calm   8.7 km/h 99% 0.0 mm 4 W/m2
06:56 8.3 °C 8.2 °C 1019.2 hPa NNW 6.1 km/h 9.7 km/h 99% 0.0 mm 7 W/m2
07:01 8.2 °C 8.1 °C 1019.2 hPa NW 6.1 km/h 12.2 km/h 99% 0.0 mm 11 W/m2
07:06 8.2 °C 8.1 °C 1019.2 hPa NW 6.1 km/h 12.2 km/h 99% 0.0 mm 13 W/m2
07:11 8.0 °C 7.8 °C 1019.2 hPa NNW 5.0 km/h 12.2 km/h 99% 0.0 mm 29 W/m2
07:16 8.2 °C 8.1 °C 1019.2 hPa NNW 8.7 km/h 13.4 km/h 99% 0.0 mm 62 W/m2
07:21 8.5 °C 8.3 °C 1019.5 hPa NNW 6.1 km/h 13.4 km/h 99% 0.0 mm 77 W/m2
07:26 8.7 °C 8.6 °C 1019.5 hPa NNW 5.0 km/h 11.1 km/h 99% 0.0 mm 90 W/m2
07:31 8.9 °C 8.8 °C 1019.5 hPa NNW 5.0 km/h 11.1 km/h 99% 0.0 mm 103 W/m2
07:36 9.1 °C 8.9 °C 1019.5 hPa NNW 6.1 km/h 13.4 km/h 99% 0.0 mm 115 W/m2
07:41 9.4 °C 9.3 °C 1019.5 hPa NNW 3.5 km/h 13.4 km/h 99% 0.0 mm 128 W/m2
07:46 9.7 °C 9.6 °C 1019.5 hPa Calm   8.7 km/h 99% 0.0 mm 139 W/m2
07:51 10.0 °C 9.8 °C 1019.5 hPa Calm   9.7 km/h 99% 0.0 mm 150 W/m2
07:56 10.2 °C 10.1 °C 1019.5 hPa Calm   9.7 km/h 99% 0.0 mm 162 W/m2
08:01 10.5 °C 10.2 °C 1019.5 hPa Calm   9.7 km/h 98% 0.0 mm 173 W/m2
08:06 10.8 °C 10.3 °C 1019.5 hPa NNW 7.2 km/h 11.1 km/h 97% 0.0 mm 188 W/m2
08:11 11.0 °C 10.1 °C 1019.9 hPa NW 6.1 km/h 11.1 km/h 94% 0.0 mm 205 W/m2
08:16 11.2 °C 10.1 °C 1019.9 hPa NW 7.2 km/h 11.1 km/h 93% 0.0 mm 224 W/m2
08:21 11.3 °C 10.1 °C 1019.9 hPa Calm   9.7 km/h 92% 0.0 mm 246 W/m2
08:26 11.6 °C 10.2 °C 1019.9 hPa NNW 5.0 km/h 9.7 km/h 91% 0.0 mm 268 W/m2
08:45 12.5 °C 10.2 °C 1019.9 hPa NNW 1.1 km/h 13.4 km/h 86% 0.0 mm 312 W/m2
08:50 12.7 °C 10.2 °C 1020.2 hPa NW 6.1 km/h 13.4 km/h 85% 0.0 mm 319 W/m2
08:55 13.1 °C 10.8 °C 1020.2 hPa NW 7.2 km/h 13.4 km/h 86% 0.0 mm 328 W/m2
09:00 13.4 °C 10.9 °C 1020.2 hPa Calm   12.2 km/h 85% 0.0 mm 336 W/m2
09:05 14.0 °C 11.3 °C 1020.2 hPa NNW 6.1 km/h 11.1 km/h 84% 0.0 mm 342 W/m2
09:10 14.1 °C 10.9 °C 1020.2 hPa Calm   11.1 km/h 81% 0.0 mm 346 W/m2
09:15 14.5 °C 11.3 °C 1020.2 hPa NNW 8.7 km/h 11.1 km/h 81% 0.0 mm 351 W/m2
09:20 14.5 °C 10.9 °C 1020.2 hPa NNW 7.2 km/h 13.4 km/h 79% 0.0 mm 353 W/m2
09:25 14.6 °C 11.2 °C 1020.2 hPa Calm   13.4 km/h 80% 0.0 mm 357 W/m2
09:30 15.1 °C 11.3 °C 1019.9 hPa NW 1.1 km/h 11.1 km/h 78% 0.0 mm 356 W/m2
09:35 15.5 °C 11.5 °C 1020.2 hPa Calm   8.7 km/h 77% 0.0 mm 309 W/m2
09:40 15.6 °C 11.4 °C 1019.9 hPa NW 6.1 km/h 11.1 km/h 76% 0.0 mm 91 W/m2
09:46 15.4 °C 11.0 °C 1020.2 hPa NNW 1.1 km/h 11.1 km/h 75% 0.0 mm 61 W/m2
09:51 15.8 °C 11.8 °C 1019.9 hPa NNW 3.5 km/h 11.1 km/h 77% 0.0 mm 57 W/m2
09:56 16.2 °C 11.6 °C 1020.2 hPa NNW 3.5 km/h 8.7 km/h 74% 0.0 mm 55 W/m2
10:01 16.4 °C 11.6 °C 1020.2 hPa NW 6.1 km/h 9.7 km/h 73% 0.0 mm 54 W/m2
10:06 16.4 °C 11.3 °C 1020.2 hPa NW 6.1 km/h 11.1 km/h 72% 0.0 mm 55 W/m2
10:11 16.6 °C 11.6 °C 1020.2 hPa Calm   11.1 km/h 72% 0.0 mm 57 W/m2
10:16 17.4 °C 12.1 °C 1020.2 hPa WNW 5.0 km/h 7.2 km/h 71% 0.0 mm 63 W/m2
10:21 17.5 °C 12.0 °C 1020.2 hPa Calm   7.2 km/h 70% 0.0 mm 97 W/m2
10:26 18.0 °C 11.8 °C 1020.2 hPa Calm   7.2 km/h 67% 0.0 mm 290 W/m2
10:31 18.3 °C 11.6 °C 1020.2 hPa NNW 1.1 km/h 8.7 km/h 65% 0.0 mm 228 W/m2
10:36 18.3 °C 11.6 °C 1020.2 hPa Calm   8.7 km/h 65% 0.0 mm 263 W/m2
10:41 18.7 °C 12.0 °C 1020.5 hPa Calm   7.2 km/h 65% 0.0 mm 411 W/m2
10:46 18.6 °C 10.9 °C 1020.2 hPa Calm   8.7 km/h 61% 0.0 mm 411 W/m2
10:51 19.1 °C 11.7 °C 1020.2 hPa Calm   8.7 km/h 62% 0.0 mm 422 W/m2
10:56 18.9 °C 11.0 °C 1020.2 hPa Calm   9.7 km/h 60% 0.0 mm 427 W/m2
11:01 18.8 °C 11.1 °C 1020.2 hPa Calm   9.7 km/h 61% 0.0 mm 432 W/m2
11:06 19.3 °C 11.8 °C 1020.2 hPa Calm   6.1 km/h 62% 0.0 mm 437 W/m2
11:11 19.6 °C 11.6 °C 1020.2 hPa Calm   3.5 km/h 60% 0.0 mm 439 W/m2
11:16 19.9 °C 11.9 °C 1020.2 hPa NW 3.5 km/h 6.1 km/h 60% 0.0 mm 443 W/m2
11:21 20.0 °C 10.9 °C 1020.2 hPa North 2.6 km/h 6.1 km/h 56% 0.0 mm 444 W/m2
11:26 20.0 °C 11.2 °C 1020.2 hPa Calm   6.1 km/h 57% 0.0 mm 446 W/m2
11:31 20.9 °C 12.1 °C 1020.2 hPa Calm   5.0 km/h 57% 0.0 mm 449 W/m2
11:36 20.7 °C 11.3 °C 1020.2 hPa Calm   7.2 km/h 55% 0.0 mm 448 W/m2
11:41 20.5 °C 11.2 °C 1020.2 hPa NW 2.6 km/h 9.7 km/h 55% 0.0 mm 448 W/m2
11:46 20.9 °C 11.8 °C 1020.2 hPa Calm   9.7 km/h 56% 0.0 mm 448 W/m2
11:51 21.1 °C 11.2 °C 1020.2 hPa Calm   5.0 km/h 53% 0.0 mm 447 W/m2
11:56 22.0 °C 11.7 °C 1019.9 hPa Calm     52% 0.0 mm 447 W/m2
12:01 22.5 °C 11.9 °C 1019.9 hPa Calm     51% 0.0 mm 447 W/m2
12:06 22.9 °C 11.3 °C 1019.5 hPa Calm     48% 0.0 mm 445 W/m2
12:11 22.1 °C 10.6 °C 1019.9 hPa SSE 2.6 km/h 7.2 km/h 48% 0.0 mm 440 W/m2
12:16 21.9 °C 11.0 °C 1019.5 hPa SSE 6.1 km/h 8.7 km/h 50% 0.0 mm 437 W/m2
12:21 22.1 °C 11.8 °C 1019.5 hPa SE 5.0 km/h 8.7 km/h 52% 0.0 mm 433 W/m2
12:26 21.8 °C 12.4 °C 1019.5 hPa SE 2.6 km/h 11.1 km/h 55% 0.0 mm 428 W/m2
12:31 21.8 °C 12.4 °C 1019.5 hPa SE 3.5 km/h 11.1 km/h 55% 0.0 mm 426 W/m2
12:36 21.7 °C 12.3 °C 1019.5 hPa SE 5.0 km/h 8.7 km/h 55% 0.0 mm 419 W/m2
12:41 22.0 °C 12.0 °C 1019.5 hPa SSE 6.1 km/h 8.7 km/h 53% 0.0 mm 414 W/m2
12:46 21.9 °C 12.7 °C 1019.5 hPa SSE 6.1 km/h 9.7 km/h 56% 0.0 mm 407 W/m2
12:51 21.3 °C 12.2 °C 1019.2 hPa SSE 6.1 km/h 9.7 km/h 56% 0.0 mm 402 W/m2
12:56 21.1 °C 12.6 °C 1019.5 hPa SSE 7.2 km/h 11.1 km/h 58% 0.0 mm 393 W/m2
13:01 21.5 °C 12.6 °C 1019.2 hPa SSE 2.6 km/h 11.1 km/h 57% 0.0 mm 387 W/m2
13:06 21.5 °C 12.4 °C 1019.2 hPa SSE 7.2 km/h 11.1 km/h 56% 0.0 mm 379 W/m2
13:11 21.2 °C 11.8 °C 1019.2 hPa SSE 6.1 km/h 11.1 km/h 55% 0.0 mm 374 W/m2
13:16 21.2 °C 12.3 °C 1019.2 hPa SE 3.5 km/h 11.1 km/h 57% 0.0 mm 365 W/m2
13:21 21.7 °C 12.8 °C 1019.2 hPa SE 1.1 km/h 11.1 km/h 57% 0.0 mm 158 W/m2
13:26 22.0 °C 12.0 °C 1019.2 hPa SSE 5.0 km/h 8.7 km/h 53% 0.0 mm 351 W/m2
13:31 22.2 °C 10.7 °C 1019.2 hPa SE 3.5 km/h 8.7 km/h 48% 0.0 mm 341 W/m2
13:36 22.0 °C 11.4 °C 1019.2 hPa SE 5.0 km/h 8.7 km/h 51% 0.0 mm 332 W/m2
13:41 21.8 °C 10.3 °C 1018.8 hPa SSE 6.1 km/h 11.1 km/h 48% 0.0 mm 323 W/m2
13:46 22.0 °C 10.2 °C 1018.8 hPa SSE 6.1 km/h 11.1 km/h 47% 0.0 mm 315 W/m2
13:51 22.1 °C 10.3 °C 1018.8 hPa SSE 2.6 km/h 11.1 km/h 47% 0.0 mm 281 W/m2
13:56 22.1 °C 9.3 °C 1018.8 hPa SSE 2.6 km/h 11.1 km/h 44% 0.0 mm 264 W/m2
14:01 22.6 °C 9.7 °C 1018.8 hPa SSE 3.5 km/h 9.7 km/h 44% 0.0 mm 207 W/m2
14:06 22.1 °C 8.9 °C 1018.8 hPa SSE 2.6 km/h 8.7 km/h 43% 0.0 mm 143 W/m2
14:11 22.6 °C 10.4 °C 1018.8 hPa SSE 5.0 km/h 11.1 km/h 46% 0.0 mm 72 W/m2
14:16 21.9 °C 10.7 °C 1018.8 hPa South 6.1 km/h 11.1 km/h 49% 0.0 mm 61 W/m2
14:21 21.9 °C 10.7 °C 1018.8 hPa SSE 3.5 km/h 11.1 km/h 49% 0.0 mm 58 W/m2
14:26 21.8 °C 10.6 °C 1018.8 hPa SSE 3.5 km/h 9.7 km/h 49% 0.0 mm 59 W/m2
14:31 22.1 °C 10.3 °C 1018.8 hPa SSE 6.1 km/h 9.7 km/h 47% 0.0 mm 59 W/m2
14:36 21.8 °C 11.5 °C 1018.8 hPa SSE 3.5 km/h 9.7 km/h 52% 0.0 mm 59 W/m2
14:41 21.5 °C 9.7 °C 1018.8 hPa Calm   12.2 km/h 47% 0.0 mm 59 W/m2
14:46 21.8 °C 10.9 °C 1018.8 hPa SSE 2.6 km/h 12.2 km/h 50% 0.0 mm 60 W/m2
14:51 21.7 °C 10.6 °C 1018.8 hPa SE 5.0 km/h 9.7 km/h 49% 0.0 mm 61 W/m2
14:56 22.2 °C 10.7 °C 1018.8 hPa SSE 2.6 km/h 9.7 km/h 48% 0.0 mm 63 W/m2
15:01 22.3 °C 10.4 °C 1018.8 hPa SE 3.5 km/h 9.7 km/h 47% 0.0 mm 65 W/m2
15:06 22.4 °C 8.9 °C 1018.8 hPa SE 5.0 km/h 9.7 km/h 42% 0.0 mm 69 W/m2
15:11 22.1 °C 8.9 °C 1018.8 hPa SE 2.6 km/h 9.7 km/h 43% 0.0 mm 89 W/m2
15:16 21.9 °C 11.0 °C 1018.8 hPa ESE 5.0 km/h 9.7 km/h 50% 0.0 mm 170 W/m2
15:21 22.0 °C 11.4 °C 1018.8 hPa ESE 5.0 km/h 8.7 km/h 51% 0.0 mm 183 W/m2
15:26 22.2 °C 10.7 °C 1018.8 hPa SE 2.6 km/h 8.7 km/h 48% 0.0 mm 173 W/m2
15:31 22.3 °C 10.4 °C 1018.8 hPa SE 3.5 km/h 11.1 km/h 47% 0.0 mm 163 W/m2
15:36 21.9 °C 10.4 °C 1018.8 hPa ESE 3.5 km/h 11.1 km/h 48% 0.0 mm 146 W/m2
15:41 21.7 °C 10.8 °C 1018.5 hPa ESE 2.6 km/h 9.7 km/h 50% 0.0 mm 140 W/m2
15:46 21.6 °C 10.4 °C 1018.5 hPa SE 2.6 km/h 9.7 km/h 49% 0.0 mm 121 W/m2
15:51 21.4 °C 11.2 °C 1018.5 hPa SE 5.0 km/h 11.1 km/h 52% 0.0 mm 99 W/m2
15:56 21.1 °C 10.9 °C 1018.8 hPa Calm   11.1 km/h 52% 0.0 mm 82 W/m2
16:01 20.8 °C 10.9 °C 1018.5 hPa ESE 3.5 km/h 6.1 km/h 53% 0.0 mm 84 W/m2
16:06 21.0 °C 10.8 °C 1018.5 hPa SE 1.1 km/h 6.1 km/h 52% 0.0 mm 74 W/m2
16:11 21.5 °C 10.3 °C 1018.5 hPa Calm   6.1 km/h 49% 0.0 mm 63 W/m2
16:16 21.7 °C 10.6 °C 1018.5 hPa Calm   6.1 km/h 49% 0.0 mm 58 W/m2
16:21 21.5 °C 10.1 °C 1018.5 hPa Calm   3.5 km/h 48% 0.0 mm 51 W/m2
16:26 21.3 °C 10.2 °C 1018.5 hPa Calm   5.0 km/h 49% 0.0 mm 69 W/m2
16:31 22.1 °C 10.3 °C 1018.5 hPa Calm   5.0 km/h 47% 0.0 mm 56 W/m2
16:36 22.5 °C 10.0 °C 1018.8 hPa Calm   1.1 km/h 45% 0.0 mm 46 W/m2
16:41 22.3 °C 9.4 °C 1018.8 hPa ESE 1.1 km/h 7.2 km/h 44% 0.0 mm 52 W/m2
16:46 21.7 °C 9.9 °C 1018.5 hPa Calm   7.2 km/h 47% 0.0 mm 46 W/m2
16:51 21.4 °C 10.6 °C 1018.8 hPa Calm   5.0 km/h 50% 0.0 mm 34 W/m2
16:56 20.9 °C 10.1 °C 1018.5 hPa Calm   6.1 km/h 50% 0.0 mm 33 W/m2
17:01 21.0 °C 9.6 °C 1018.5 hPa Calm   6.1 km/h 48% 0.0 mm 28 W/m2
17:06 20.4 °C 9.7 °C 1018.5 hPa Calm     50% 0.0 mm 17 W/m2
17:11 18.8 °C 9.6 °C 1018.5 hPa Calm     55% 0.0 mm 13 W/m2
17:16 17.9 °C 9.0 °C 1018.5 hPa Calm     56% 0.0 mm 10 W/m2
17:21 17.1 °C 8.8 °C 1018.5 hPa Calm   3.5 km/h 58% 0.0 mm 6 W/m2
17:26 16.5 °C 9.2 °C 1018.5 hPa Calm   3.5 km/h 62% 0.0 mm 4 W/m2
17:31 15.9 °C 9.3 °C 1018.5 hPa Calm   1.1 km/h 65% 0.0 mm 0 W/m2
17:36 15.7 °C 8.9 °C 1018.5 hPa Calm     64% 0.0 mm 0 W/m2
17:41 15.5 °C 8.7 °C 1018.5 hPa Calm     64% 0.0 mm 0 W/m2
17:46 15.2 °C 8.4 °C 1018.5 hPa Calm   1.1 km/h 64% 0.0 mm 0 W/m2
17:51 15.1 °C 8.3 °C 1018.5 hPa Calm   1.1 km/h 64% 0.0 mm 0 W/m2
17:56 14.8 °C 8.5 °C 1018.5 hPa Calm     66% 0.0 mm 0 W/m2
18:01 14.8 °C 8.5 °C 1018.5 hPa Calm     66% 0.0 mm 0 W/m2
18:06 14.9 °C 8.6 °C 1018.5 hPa Calm     66% 0.0 mm 0 W/m2
18:11 14.6 °C 8.8 °C 1018.5 hPa Calm     68% 0.0 mm 0 W/m2
18:16 14.3 °C 9.1 °C 1018.5 hPa Calm     71% 0.0 mm 0 W/m2
18:21 13.9 °C 9.3 °C 1018.8 hPa Calm     74% 0.0 mm 0 W/m2
18:26 13.4 °C 9.3 °C 1018.5 hPa Calm     76% 0.0 mm 0 W/m2
18:31 12.9 °C 9.2 °C 1018.8 hPa Calm     78% 0.0 mm 0 W/m2
18:36 12.6 °C 9.1 °C 1018.8 hPa Calm     79% 0.0 mm 0 W/m2
18:41 12.5 °C 9.5 °C 1018.8 hPa Calm     82% 0.0 mm 0 W/m2
18:46 12.5 °C 9.9 °C 1018.8 hPa Calm     84% 0.0 mm 0 W/m2
18:51 12.4 °C 9.9 °C 1018.8 hPa Calm     85% 0.0 mm 0 W/m2
18:56 12.2 °C 9.9 °C 1018.8 hPa Calm     86% 0.0 mm 0 W/m2
19:01 12.1 °C 10.0 °C 1018.8 hPa Calm     87% 0.0 mm 0 W/m2
19:06 12.0 °C 10.1 °C 1018.8 hPa Calm     88% 0.0 mm 0 W/m2
19:11 11.8 °C 10.1 °C 1018.8 hPa Calm     89% 0.0 mm 0 W/m2
19:16 11.7 °C 10.1 °C 1018.8 hPa Calm   3.5 km/h 90% 0.0 mm 0 W/m2
19:21 11.6 °C 10.2 °C 1018.8 hPa Calm   3.5 km/h 91% 0.0 mm 0 W/m2
19:26 11.4 °C 10.2 °C 1018.8 hPa Calm   3.5 km/h 92% 0.0 mm 0 W/m2
19:31 11.3 °C 10.1 °C 1018.8 hPa NNW 2.6 km/h 5.0 km/h 92% 0.0 mm 0 W/m2
19:36 11.2 °C 10.1 °C 1018.8 hPa Calm   5.0 km/h 93% 0.0 mm 0 W/m2
19:41 11.2 °C 10.1 °C 1018.8 hPa Calm   6.1 km/h 93% 0.0 mm 0 W/m2
19:46 11.1 °C 10.2 °C 1018.8 hPa Calm   6.1 km/h 94% 0.0 mm 0 W/m2
19:51 11.1 °C 10.2 °C 1019.2 hPa Calm   3.5 km/h 94% 0.0 mm 0 W/m2
19:56 11.1 °C 10.2 °C 1018.8 hPa Calm   3.5 km/h 94% 0.0 mm 0 W/m2
20:01 11.1 °C 10.3 °C 1018.8 hPa Calm   3.5 km/h 95% 0.0 mm 0 W/m2
20:06 11.1 °C 10.3 °C 1019.2 hPa Calm     95% 0.0 mm 0 W/m2
20:11 11.0 °C 10.2 °C 1018.8 hPa Calm     95% 0.0 mm 0 W/m2
20:16 11.1 °C 10.5 °C 1018.8 hPa Calm     96% 0.0 mm 0 W/m2
20:21 11.1 °C 10.5 °C 1018.8 hPa NW 5.0 km/h 8.7 km/h 96% 0.0 mm 0 W/m2
20:26 11.1 °C 10.5 °C 1018.8 hPa Calm   8.7 km/h 96% 0.0 mm 0 W/m2
20:31 11.0 °C 10.6 °C 1018.8 hPa Calm   7.2 km/h 97% 0.0 mm 0 W/m2
20:36 11.0 °C 10.6 °C 1018.8 hPa Calm   2.6 km/h 97% 0.0 mm 0 W/m2
20:41 10.9 °C 10.6 °C 1018.8 hPa Calm     98% 0.0 mm 0 W/m2
20:46 10.9 °C 10.6 °C 1018.8 hPa Calm     98% 0.0 mm 0 W/m2
20:51 10.8 °C 10.5 °C 1019.2 hPa Calm   5.0 km/h 98% 0.0 mm 0 W/m2
20:56 10.7 °C 10.4 °C 1018.8 hPa Calm   5.0 km/h 98% 0.0 mm 0 W/m2
Northern Hawkes Bay. New Zealand Historic Data
Compliments of Weather Underground - 1.75 mb